sensor_id;sensor_type;location;lat;lon;timestamp;pressure;altitude;pressure_sealevel;temperature;humidity
41636;BME280;27623;51.966;4.602;2022-10-18T00:00:41;64922.31;;;14.90;100.00
41636;BME280;27623;51.966;4.602;2022-10-18T00:03:09;64929.84;;;14.87;100.00
41636;BME280;27623;51.966;4.602;2022-10-18T00:05:35;64926.88;;;14.96;100.00
41636;BME280;27623;51.966;4.602;2022-10-18T00:08:00;64913.31;;;14.93;100.00
41636;BME280;27623;51.966;4.602;2022-10-18T00:10:26;64925.41;;;14.90;100.00
41636;BME280;27623;51.966;4.602;2022-10-18T00:12:52;64930.56;;;14.90;100.00
41636;BME280;27623;51.966;4.602;2022-10-18T00:15:17;64911.13;;;14.91;100.00
41636;BME280;27623;51.966;4.602;2022-10-18T00:17:43;64900.88;;;14.84;100.00
41636;BME280;27623;51.966;4.602;2022-10-18T00:20:09;64919.94;;;14.78;100.00
41636;BME280;27623;51.966;4.602;2022-10-18T00:22:37;64897.41;;;14.78;100.00
41636;BME280;27623;51.966;4.602;2022-10-18T00:25:04;64907.84;;;14.81;100.00
41636;BME280;27623;51.966;4.602;2022-10-18T00:27:32;64892.09;;;14.76;100.00
41636;BME280;27623;51.966;4.602;2022-10-18T00:29:57;64890.84;;;14.72;100.00
41636;BME280;27623;51.966;4.602;2022-10-18T00:32:23;64923.28;;;14.67;100.00
41636;BME280;27623;51.966;4.602;2022-10-18T00:34:49;64827.53;;;14.47;100.00
41636;BME280;27623;51.966;4.602;2022-10-18T00:37:15;64844.38;;;14.53;100.00
41636;BME280;27623;51.966;4.602;2022-10-18T00:39:40;64879.53;;;14.57;100.00
41636;BME280;27623;51.966;4.602;2022-10-18T00:42:06;64915.97;;;14.58;100.00
41636;BME280;27623;51.966;4.602;2022-10-18T00:47:07;64890.88;;;14.65;100.00
41636;BME280;27623;51.966;4.602;2022-10-18T00:49:36;64860.31;;;14.54;100.00
41636;BME280;27623;51.966;4.602;2022-10-18T00:54:33;64906.81;;;14.66;100.00
41636;BME280;27623;51.966;4.602;2022-10-18T00:56:59;64874.03;;;14.59;100.00
41636;BME280;27623;51.966;4.602;2022-10-18T00:59:25;64863.03;;;14.56;100.00
41636;BME280;27623;51.966;4.602;2022-10-18T01:01:51;64829.53;;;14.54;100.00
41636;BME280;27623;51.966;4.602;2022-10-18T01:04:18;64826.81;;;14.51;100.00
41636;BME280;27623;51.966;4.602;2022-10-18T01:07:13;64860.31;;;14.54;100.00
41636;BME280;27623;51.966;4.602;2022-10-18T01:09:58;64842.22;;;14.44;100.00
41636;BME280;27623;51.966;4.602;2022-10-18T01:13:30;64831.00;;;14.53;100.00
41636;BME280;27623;51.966;4.602;2022-10-18T01:18:07;64885.03;;;14.55;100.00
41636;BME280;27623;51.966;4.602;2022-10-18T01:26:26;64855.03;;;14.37;100.00
41636;BME280;27623;51.966;4.602;2022-10-18T01:31:32;64845.31;;;14.44;100.00
41636;BME280;27623;51.966;4.602;2022-10-18T01:34:01;64868.94;;;14.45;100.00
41636;BME280;27623;51.966;4.602;2022-10-18T01:36:32;64871.34;;;14.42;100.00
41636;BME280;27623;51.966;4.602;2022-10-18T01:39:00;64847.69;;;14.35;100.00
41636;BME280;27623;51.966;4.602;2022-10-18T01:41:27;64878.09;;;14.44;100.00
41636;BME280;27623;51.966;4.602;2022-10-18T01:43:57;64867.66;;;14.41;100.00
41636;BME280;27623;51.966;4.602;2022-10-18T01:46:24;64854.66;;;14.39;100.00
41636;BME280;27623;51.966;4.602;2022-10-18T01:48:51;64851.56;;;14.31;100.00
41636;BME280;27623;51.966;4.602;2022-10-18T01:51:19;64831.63;;;14.25;100.00
41636;BME280;27623;51.966;4.602;2022-10-18T01:53:47;64818.63;;;14.29;100.00
41636;BME280;27623;51.966;4.602;2022-10-18T01:56:31;64823.75;;;14.29;100.00
41636;BME280;27623;51.966;4.602;2022-10-18T02:04:51;64822.13;;;14.21;100.00
41636;BME280;27623;51.966;4.602;2022-10-18T02:07:26;64841.53;;;14.20;100.00
41636;BME280;27623;51.966;4.602;2022-10-18T02:10:09;64836.00;;;14.29;100.00
41636;BME280;27623;51.966;4.602;2022-10-18T02:12:36;64811.66;;;14.25;100.00
41636;BME280;27623;51.966;4.602;2022-10-18T02:15:04;64829.97;;;14.23;100.00
41636;BME280;27623;51.966;4.602;2022-10-18T02:17:32;64875.03;;;14.15;100.00
41636;BME280;27623;51.966;4.602;2022-10-18T02:19:58;64799.25;;;14.16;100.00
41636;BME280;27623;51.966;4.602;2022-10-18T02:22:28;64818.13;;;14.07;100.00
41636;BME280;27623;51.966;4.602;2022-10-18T02:24:57;64786.47;;;14.09;100.00
41636;BME280;27623;51.966;4.602;2022-10-18T02:27:24;64803.50;;;14.03;100.00
41636;BME280;27623;51.966;4.602;2022-10-18T02:29:51;64791.47;;;13.92;100.00
41636;BME280;27623;51.966;4.602;2022-10-18T02:32:23;64807.38;;;13.93;100.00
41636;BME280;27623;51.966;4.602;2022-10-18T02:34:57;64778.66;;;13.92;100.00
41636;BME280;27623;51.966;4.602;2022-10-18T02:37:29;64789.66;;;13.88;100.00
41636;BME280;27623;51.966;4.602;2022-10-18T02:39:56;64803.19;;;13.91;100.00
41636;BME280;27623;51.966;4.602;2022-10-18T02:42:22;64799.38;;;13.73;100.00
41636;BME280;27623;51.966;4.602;2022-10-18T02:44:48;64767.16;;;13.74;100.00
41636;BME280;27623;51.966;4.602;2022-10-18T02:47:13;64794.97;;;13.76;100.00
41636;BME280;27623;51.966;4.602;2022-10-18T02:49:38;64799.34;;;13.81;100.00
41636;BME280;27623;51.966;4.602;2022-10-18T02:52:04;64793.50;;;13.77;100.00
41636;BME280;27623;51.966;4.602;2022-10-18T02:54:30;64765.50;;;13.80;100.00
41636;BME280;27623;51.966;4.602;2022-10-18T02:56:55;64736.31;;;13.58;100.00
41636;BME280;27623;51.966;4.602;2022-10-18T02:59:20;64777.81;;;13.65;100.00
41636;BME280;27623;51.966;4.602;2022-10-18T03:01:46;64764.81;;;13.70;100.00
41636;BME280;27623;51.966;4.602;2022-10-18T03:04:11;64731.72;;;13.58;100.00
41636;BME280;27623;51.966;4.602;2022-10-18T03:06:37;64719.28;;;13.63;100.00
41636;BME280;27623;51.966;4.602;2022-10-18T03:09:04;64789.16;;;13.66;100.00
41636;BME280;27623;51.966;4.602;2022-10-18T03:11:30;64743.59;;;13.67;100.00
41636;BME280;27623;51.966;4.602;2022-10-18T03:13:56;64757.88;;;13.59;100.00
41636;BME280;27623;51.966;4.602;2022-10-18T03:16:22;64735.56;;;13.62;100.00
41636;BME280;27623;51.966;4.602;2022-10-18T03:18:50;64741.75;;;13.70;100.00
41636;BME280;27623;51.966;4.602;2022-10-18T03:21:16;64774.34;;;13.60;100.00
41636;BME280;27623;51.966;4.602;2022-10-18T03:23:41;64756.81;;;13.51;100.00
41636;BME280;27623;51.966;4.602;2022-10-18T03:26:08;64745.69;;;13.45;100.00
41636;BME280;27623;51.966;4.602;2022-10-18T03:28:33;64732.50;;;13.40;100.00
41636;BME280;27623;51.966;4.602;2022-10-18T03:31:00;64739.81;;;13.42;100.00
41636;BME280;27623;51.966;4.602;2022-10-18T03:33:26;64714.97;;;13.31;100.00
41636;BME280;27623;51.966;4.602;2022-10-18T03:35:54;64727.94;;;13.40;100.00
41636;BME280;27623;51.966;4.602;2022-10-18T03:38:20;64723.00;;;13.43;100.00
41636;BME280;27623;51.966;4.602;2022-10-18T03:40:45;64729.97;;;13.40;100.00
41636;BME280;27623;51.966;4.602;2022-10-18T03:43:11;64723.91;;;13.41;100.00
41636;BME280;27623;51.966;4.602;2022-10-18T03:45:36;64720.09;;;13.31;100.00
41636;BME280;27623;51.966;4.602;2022-10-18T03:48:03;64745.50;;;13.35;100.00
41636;BME280;27623;51.966;4.602;2022-10-18T03:50:29;64727.03;;;13.35;100.00
41636;BME280;27623;51.966;4.602;2022-10-18T03:52:55;64749.88;;;13.39;100.00
41636;BME280;27623;51.966;4.602;2022-10-18T03:55:21;64727.22;;;13.45;100.00
41636;BME280;27623;51.966;4.602;2022-10-18T03:57:46;64718.63;;;13.39;100.00
41636;BME280;27623;51.966;4.602;2022-10-18T04:00:12;64709.50;;;13.33;100.00
41636;BME280;27623;51.966;4.602;2022-10-18T04:02:37;64754.47;;;13.32;100.00
41636;BME280;27623;51.966;4.602;2022-10-18T04:05:05;64742.06;;;13.30;100.00
41636;BME280;27623;51.966;4.602;2022-10-18T04:07:32;64740.56;;;13.31;100.00
41636;BME280;27623;51.966;4.602;2022-10-18T04:09:58;64689.94;;;13.31;100.00
41636;BME280;27623;51.966;4.602;2022-10-18T04:12:24;64702.56;;;13.29;100.00
41636;BME280;27623;51.966;4.602;2022-10-18T04:14:49;64709.34;;;13.16;100.00
41636;BME280;27623;51.966;4.602;2022-10-18T04:17:14;64694.13;;;13.33;100.00
41636;BME280;27623;51.966;4.602;2022-10-18T04:19:40;64731.97;;;13.32;100.00
41636;BME280;27623;51.966;4.602;2022-10-18T04:22:06;64719.91;;;13.35;100.00
41636;BME280;27623;51.966;4.602;2022-10-18T04:24:32;64710.22;;;13.36;100.00
41636;BME280;27623;51.966;4.602;2022-10-18T04:26:57;64726.50;;;13.34;100.00
41636;BME280;27623;51.966;4.602;2022-10-18T04:29:23;64725.56;;;13.36;100.00
41636;BME280;27623;51.966;4.602;2022-10-18T04:31:48;64723.03;;;13.29;100.00
41636;BME280;27623;51.966;4.602;2022-10-18T04:34:14;64689.06;;;13.19;100.00
41636;BME280;27623;51.966;4.602;2022-10-18T04:36:39;64713.91;;;13.30;100.00
41636;BME280;27623;51.966;4.602;2022-10-18T04:39:05;64712.09;;;13.26;100.00
41636;BME280;27623;51.966;4.602;2022-10-18T04:41:30;64715.56;;;13.24;100.00
41636;BME280;27623;51.966;4.602;2022-10-18T04:43:55;64666.94;;;13.10;100.00
41636;BME280;27623;51.966;4.602;2022-10-18T04:46:21;64682.47;;;13.13;100.00
41636;BME280;27623;51.966;4.602;2022-10-18T04:48:46;64713.00;;;13.10;100.00
41636;BME280;27623;51.966;4.602;2022-10-18T04:51:12;64713.38;;;13.15;100.00
41636;BME280;27623;51.966;4.602;2022-10-18T04:53:37;64705.50;;;13.13;100.00
41636;BME280;27623;51.966;4.602;2022-10-18T04:56:03;64694.75;;;13.05;100.00
41636;BME280;27623;51.966;4.602;2022-10-18T04:58:28;64695.47;;;13.01;100.00
41636;BME280;27623;51.966;4.602;2022-10-18T05:00:56;64683.59;;;12.99;100.00
41636;BME280;27623;51.966;4.602;2022-10-18T05:03:22;64683.97;;;13.04;100.00
41636;BME280;27623;51.966;4.602;2022-10-18T05:05:47;64680.72;;;12.87;100.00
41636;BME280;27623;51.966;4.602;2022-10-18T05:08:13;64672.69;;;12.75;100.00
41636;BME280;27623;51.966;4.602;2022-10-18T05:10:38;64667.34;;;12.94;100.00
41636;BME280;27623;51.966;4.602;2022-10-18T05:13:04;64680.50;;;12.92;100.00
41636;BME280;27623;51.966;4.602;2022-10-18T05:15:29;64649.84;;;12.85;100.00
41636;BME280;27623;51.966;4.602;2022-10-18T05:17:54;64635.19;;;12.95;100.00
41636;BME280;27623;51.966;4.602;2022-10-18T05:20:20;64652.41;;;12.78;100.00
41636;BME280;27623;51.966;4.602;2022-10-18T05:22:45;64623.03;;;12.74;100.00
41636;BME280;27623;51.966;4.602;2022-10-18T05:25:11;64649.69;;;12.75;100.00
41636;BME280;27623;51.966;4.602;2022-10-18T05:27:36;64653.38;;;12.62;100.00
41636;BME280;27623;51.966;4.602;2022-10-18T05:30:03;64610.66;;;12.58;100.00
41636;BME280;27623;51.966;4.602;2022-10-18T05:32:28;64640.41;;;12.66;100.00
41636;BME280;27623;51.966;4.602;2022-10-18T05:34:54;64663.38;;;12.73;100.00
41636;BME280;27623;51.966;4.602;2022-10-18T05:37:19;64630.91;;;12.62;100.00
41636;BME280;27623;51.966;4.602;2022-10-18T05:39:45;64642.19;;;12.70;100.00
41636;BME280;27623;51.966;4.602;2022-10-18T05:42:11;64617.22;;;12.64;100.00
41636;BME280;27623;51.966;4.602;2022-10-18T05:44:36;64637.47;;;12.68;100.00
41636;BME280;27623;51.966;4.602;2022-10-18T05:47:02;64637.84;;;12.66;100.00
41636;BME280;27623;51.966;4.602;2022-10-18T05:49:27;64584.00;;;12.57;100.00
41636;BME280;27623;51.966;4.602;2022-10-18T05:51:53;64598.09;;;12.46;100.00
41636;BME280;27623;51.966;4.602;2022-10-18T05:54:18;64584.94;;;12.41;100.00
41636;BME280;27623;51.966;4.602;2022-10-18T05:56:46;64609.97;;;12.33;100.00
41636;BME280;27623;51.966;4.602;2022-10-18T05:59:12;64615.06;;;12.41;100.00
41636;BME280;27623;51.966;4.602;2022-10-18T06:01:39;64624.34;;;12.49;100.00
41636;BME280;27623;51.966;4.602;2022-10-18T06:04:05;64619.81;;;12.43;100.00
41636;BME280;27623;51.966;4.602;2022-10-18T06:06:31;64617.81;;;12.43;100.00
41636;BME280;27623;51.966;4.602;2022-10-18T06:08:57;64606.47;;;12.49;100.00
41636;BME280;27623;51.966;4.602;2022-10-18T06:11:23;64623.66;;;12.32;100.00
41636;BME280;27623;51.966;4.602;2022-10-18T06:13:50;64586.63;;;12.21;100.00
41636;BME280;27623;51.966;4.602;2022-10-18T06:16:20;64635.69;;;12.36;100.00
41636;BME280;27623;51.966;4.602;2022-10-18T06:18:47;64582.00;;;12.50;100.00
41636;BME280;27623;51.966;4.602;2022-10-18T06:21:13;64609.38;;;12.47;100.00
41636;BME280;27623;51.966;4.602;2022-10-18T06:23:39;64609.22;;;12.37;100.00
41636;BME280;27623;51.966;4.602;2022-10-18T06:26:09;64603.22;;;12.39;100.00
41636;BME280;27623;51.966;4.602;2022-10-18T06:28:36;64594.25;;;12.43;100.00
41636;BME280;27623;51.966;4.602;2022-10-18T06:31:03;64634.41;;;12.39;100.00
41636;BME280;27623;51.966;4.602;2022-10-18T06:33:30;64614.88;;;12.45;100.00
41636;BME280;27623;51.966;4.602;2022-10-18T06:36:15;64643.53;;;12.46;100.00
41636;BME280;27623;51.966;4.602;2022-10-18T06:38:44;64604.84;;;12.33;100.00
41636;BME280;27623;51.966;4.602;2022-10-18T06:41:12;64579.47;;;12.43;100.00
41636;BME280;27623;51.966;4.602;2022-10-18T06:43:38;64622.16;;;12.47;100.00
41636;BME280;27623;51.966;4.602;2022-10-18T06:46:04;64643.34;;;12.50;100.00
41636;BME280;27623;51.966;4.602;2022-10-18T06:48:33;64632.56;;;12.50;100.00
41636;BME280;27623;51.966;4.602;2022-10-18T06:51:01;64588.19;;;12.51;100.00
41636;BME280;27623;51.966;4.602;2022-10-18T06:53:30;64630.91;;;12.55;100.00
41636;BME280;27623;51.966;4.602;2022-10-18T06:56:06;64627.47;;;12.50;100.00
41636;BME280;27623;51.966;4.602;2022-10-18T06:58:33;64616.16;;;12.42;100.00
41636;BME280;27623;51.966;4.602;2022-10-18T07:01:04;64625.63;;;12.53;100.00
41636;BME280;27623;51.966;4.602;2022-10-18T07:03:30;64609.19;;;12.59;100.00
41636;BME280;27623;51.966;4.602;2022-10-18T07:05:59;64619.03;;;12.61;100.00
41636;BME280;27623;51.966;4.602;2022-10-18T07:08:26;64625.06;;;12.66;100.00
41636;BME280;27623;51.966;4.602;2022-10-18T07:10:52;64634.56;;;12.56;100.00
41636;BME280;27623;51.966;4.602;2022-10-18T07:13:18;64635.47;;;12.62;100.00
41636;BME280;27623;51.966;4.602;2022-10-18T07:15:43;64649.34;;;12.56;100.00
41636;BME280;27623;51.966;4.602;2022-10-18T07:18:09;64619.59;;;12.54;100.00
41636;BME280;27623;51.966;4.602;2022-10-18T07:20:35;64618.31;;;12.51;100.00
41636;BME280;27623;51.966;4.602;2022-10-18T07:23:00;64619.59;;;12.61;100.00
41636;BME280;27623;51.966;4.602;2022-10-18T07:25:29;64638.94;;;12.67;100.00
41636;BME280;27623;51.966;4.602;2022-10-18T07:27:55;64621.75;;;12.70;100.00
41636;BME280;27623;51.966;4.602;2022-10-18T07:30:21;64649.91;;;12.63;100.00
41636;BME280;27623;51.966;4.602;2022-10-18T07:32:46;64594.03;;;12.61;100.00
41636;BME280;27623;51.966;4.602;2022-10-18T07:35:12;64630.72;;;12.67;100.00
41636;BME280;27623;51.966;4.602;2022-10-18T07:37:37;64655.34;;;12.76;100.00
41636;BME280;27623;51.966;4.602;2022-10-18T07:40:02;64651.16;;;12.74;100.00
41636;BME280;27623;51.966;4.602;2022-10-18T07:42:28;64636.53;;;12.70;100.00
41636;BME280;27623;51.966;4.602;2022-10-18T07:44:53;64630.53;;;12.64;100.00
41636;BME280;27623;51.966;4.602;2022-10-18T07:47:19;64631.78;;;12.68;100.00
41636;BME280;27623;51.966;4.602;2022-10-18T07:49:45;64621.56;;;12.68;100.00
41636;BME280;27623;51.966;4.602;2022-10-18T07:52:10;64638.56;;;12.69;100.00
41636;BME280;27623;51.966;4.602;2022-10-18T07:54:36;64623.22;;;12.69;100.00
41636;BME280;27623;51.966;4.602;2022-10-18T07:57:03;64666.31;;;12.79;100.00
41636;BME280;27623;51.966;4.602;2022-10-18T07:59:28;64662.28;;;12.87;100.00
41636;BME280;27623;51.966;4.602;2022-10-18T08:01:54;64667.53;;;12.96;100.00
41636;BME280;27623;51.966;4.602;2022-10-18T08:04:19;64704.44;;;13.04;100.00
41636;BME280;27623;51.966;4.602;2022-10-18T08:06:45;64712.09;;;13.12;100.00
41636;BME280;27623;51.966;4.602;2022-10-18T08:09:11;64715.03;;;13.17;100.00
41636;BME280;27623;51.966;4.602;2022-10-18T08:11:37;64683.75;;;13.23;100.00
41636;BME280;27623;51.966;4.602;2022-10-18T08:14:02;64706.38;;;13.32;100.00
41636;BME280;27623;51.966;4.602;2022-10-18T08:16:28;64711.50;;;13.39;100.00
41636;BME280;27623;51.966;4.602;2022-10-18T08:18:56;64739.28;;;13.49;100.00
41636;BME280;27623;51.966;4.602;2022-10-18T08:21:22;64756.97;;;13.53;100.00
41636;BME280;27623;51.966;4.602;2022-10-18T08:23:48;64761.00;;;13.59;100.00
41636;BME280;27623;51.966;4.602;2022-10-18T08:26:18;64754.22;;;13.65;100.00
41636;BME280;27623;51.966;4.602;2022-10-18T08:28:44;64759.84;;;13.72;100.00
41636;BME280;27623;51.966;4.602;2022-10-18T08:31:12;64778.69;;;13.78;100.00
41636;BME280;27623;51.966;4.602;2022-10-18T08:33:38;64780.13;;;13.84;100.00
41636;BME280;27623;51.966;4.602;2022-10-18T08:36:06;64794.41;;;13.90;100.00
41636;BME280;27623;51.966;4.602;2022-10-18T08:38:36;64783.38;;;13.94;100.00
41636;BME280;27623;51.966;4.602;2022-10-18T08:41:59;64800.41;;;14.03;100.00
41636;BME280;27623;51.966;4.602;2022-10-18T08:44:32;64795.81;;;14.03;100.00
41636;BME280;27623;51.966;4.602;2022-10-18T08:47:09;64816.25;;;14.18;100.00
41636;BME280;27623;51.966;4.602;2022-10-18T08:49:43;64821.56;;;14.27;100.00
41636;BME280;27623;51.966;4.602;2022-10-18T08:52:36;64851.38;;;14.36;100.00
41636;BME280;27623;51.966;4.602;2022-10-18T08:55:21;64876.44;;;14.50;100.00
41636;BME280;27623;51.966;4.602;2022-10-18T08:57:52;64889.03;;;14.61;100.00
41636;BME280;27623;51.966;4.602;2022-10-18T09:00:23;64892.50;;;14.74;100.00
41636;BME280;27623;51.966;4.602;2022-10-18T09:08:38;64885.28;;;14.89;100.00
41636;BME280;27623;51.966;4.602;2022-10-18T09:11:22;64883.56;;;15.01;100.00
41636;BME280;27623;51.966;4.602;2022-10-18T09:14:11;64931.94;;;15.10;100.00
41636;BME280;27623;51.966;4.602;2022-10-18T09:19:59;64974.19;;;15.42;100.00
41636;BME280;27623;51.966;4.602;2022-10-18T09:22:49;64976.19;;;15.49;100.00
41636;BME280;27623;51.966;4.602;2022-10-18T09:30:39;65025.44;;;15.85;100.00
41636;BME280;27623;51.966;4.602;2022-10-18T09:36:04;65072.34;;;16.09;100.00
41636;BME280;27623;51.966;4.602;2022-10-18T09:38:40;65074.66;;;16.21;100.00
41636;BME280;27623;51.966;4.602;2022-10-18T09:41:12;65127.53;;;16.34;100.00
41636;BME280;27623;51.966;4.602;2022-10-18T09:46:08;65134.06;;;16.62;100.00
41636;BME280;27623;51.966;4.602;2022-10-18T09:48:47;65121.31;;;16.78;100.00
41636;BME280;27623;51.966;4.602;2022-10-18T09:51:19;65145.69;;;16.89;100.00
41636;BME280;27623;51.966;4.602;2022-10-18T09:56:40;65228.50;;;17.25;100.00
41636;BME280;27623;51.966;4.602;2022-10-18T10:02:04;65250.63;;;17.55;100.00
41636;BME280;27623;51.966;4.602;2022-10-18T10:04:30;65252.22;;;17.71;100.00
41636;BME280;27623;51.966;4.602;2022-10-18T10:06:59;65254.13;;;17.92;100.00
41636;BME280;27623;51.966;4.602;2022-10-18T10:09:35;65308.63;;;18.04;100.00
41636;BME280;27623;51.966;4.602;2022-10-18T10:12:00;65330.06;;;18.24;100.00
41636;BME280;27623;51.966;4.602;2022-10-18T10:14:27;65333.84;;;18.41;99.51
41636;BME280;27623;51.966;4.602;2022-10-18T10:17:21;65359.00;;;18.55;98.04
41636;BME280;27623;51.966;4.602;2022-10-18T10:20:14;65374.56;;;18.79;96.35
41636;BME280;27623;51.966;4.602;2022-10-18T10:22:41;65426.31;;;18.96;94.23
41636;BME280;27623;51.966;4.602;2022-10-18T10:25:19;65430.47;;;19.11;91.65
41636;BME280;27623;51.966;4.602;2022-10-18T10:27:45;65451.41;;;19.31;92.51
41636;BME280;27623;51.966;4.602;2022-10-18T10:30:22;65483.44;;;19.46;90.30
41636;BME280;27623;51.966;4.602;2022-10-18T10:32:50;65526.91;;;19.69;88.95
41636;BME280;27623;51.966;4.602;2022-10-18T10:37:57;65548.91;;;19.97;83.55
41636;BME280;27623;51.966;4.602;2022-10-18T10:45:31;65643.69;;;20.43;83.17
41636;BME280;27623;51.966;4.602;2022-10-18T10:48:07;65606.63;;;20.54;81.23
41636;BME280;27623;51.966;4.602;2022-10-18T10:51:29;65669.25;;;20.69;77.38
41636;BME280;27623;51.966;4.602;2022-10-18T10:53:43;65688.34;;;20.91;77.85
41636;BME280;27623;51.966;4.602;2022-10-18T10:56:21;65687.22;;;21.21;74.31
41636;BME280;27623;51.966;4.602;2022-10-18T10:58:48;65709.25;;;21.25;77.09
41636;BME280;27623;51.966;4.602;2022-10-18T11:01:19;65722.03;;;21.22;74.21
41636;BME280;27623;51.966;4.602;2022-10-18T11:03:50;65748.59;;;21.40;72.94
41636;BME280;27623;51.966;4.602;2022-10-18T11:08:54;65772.63;;;21.74;74.12
41636;BME280;27623;51.966;4.602;2022-10-18T11:11:26;65818.09;;;21.94;69.52
41636;BME280;27623;51.966;4.602;2022-10-18T11:14:33;65822.66;;;22.08;64.17
41636;BME280;27623;51.966;4.602;2022-10-18T11:17:10;65830.72;;;22.20;62.27
41636;BME280;27623;51.966;4.602;2022-10-18T11:19:50;65878.91;;;22.26;63.15
41636;BME280;27623;51.966;4.602;2022-10-18T11:22:20;65894.22;;;22.38;63.66
41636;BME280;27623;51.966;4.602;2022-10-18T11:24:49;65908.94;;;22.56;62.39
41636;BME280;27623;51.966;4.602;2022-10-18T11:34:08;65934.59;;;22.82;60.76
41636;BME280;27623;51.966;4.602;2022-10-18T11:39:18;65976.28;;;23.15;58.72
41636;BME280;27623;51.966;4.602;2022-10-18T11:42:05;65979.84;;;23.14;58.21
41636;BME280;27623;51.966;4.602;2022-10-18T11:47:36;66066.72;;;23.53;57.64
41636;BME280;27623;51.966;4.602;2022-10-18T11:50:10;66056.59;;;23.65;55.77
41636;BME280;27623;51.966;4.602;2022-10-18T11:52:44;66059.09;;;23.79;55.06
41636;BME280;27623;51.966;4.602;2022-10-18T11:55:24;66094.31;;;23.92;55.07
41636;BME280;27623;51.966;4.602;2022-10-18T11:58:01;66107.41;;;24.09;52.24
41636;BME280;27623;51.966;4.602;2022-10-18T12:00:51;66109.38;;;23.92;55.26
41636;BME280;27623;51.966;4.602;2022-10-18T12:06:09;66113.94;;;24.06;50.87
41636;BME280;27623;51.966;4.602;2022-10-18T12:08:37;66152.16;;;24.24;50.82
41636;BME280;27623;51.966;4.602;2022-10-18T12:11:15;66145.59;;;24.27;49.73
41636;BME280;27623;51.966;4.602;2022-10-18T12:13:57;66179.25;;;24.32;49.35
41636;BME280;27623;51.966;4.602;2022-10-18T12:16:28;66153.03;;;24.29;47.95
41636;BME280;27623;51.966;4.602;2022-10-18T12:19:00;66158.91;;;24.40;49.73
41636;BME280;27623;51.966;4.602;2022-10-18T12:21:30;66184.06;;;24.58;45.88
41636;BME280;27623;51.966;4.602;2022-10-18T12:26:57;66170.69;;;24.53;45.84
41636;BME280;27623;51.966;4.602;2022-10-18T12:32:18;66231.22;;;24.77;47.32
41636;BME280;27623;51.966;4.602;2022-10-18T12:34:51;66201.69;;;24.88;45.38
41636;BME280;27623;51.966;4.602;2022-10-18T12:43:32;66265.19;;;25.18;45.74
41636;BME280;27623;51.966;4.602;2022-10-18T12:46:06;66284.41;;;25.16;45.66
41636;BME280;27623;51.966;4.602;2022-10-18T12:48:37;66235.50;;;25.03;44.58
41636;BME280;27623;51.966;4.602;2022-10-18T12:51:13;66241.16;;;25.17;44.08
41636;BME280;27623;51.966;4.602;2022-10-18T12:53:41;66287.47;;;25.31;44.69
41636;BME280;27623;51.966;4.602;2022-10-18T12:56:35;66315.00;;;25.37;42.35
41636;BME280;27623;51.966;4.602;2022-10-18T13:09:32;66324.50;;;25.62;43.95
41636;BME280;27623;51.966;4.602;2022-10-18T13:15:03;66302.56;;;25.54;42.84
41636;BME280;27623;51.966;4.602;2022-10-18T13:17:46;66334.72;;;25.67;42.61
41636;BME280;27623;51.966;4.602;2022-10-18T13:20:28;66337.03;;;25.79;43.52
41636;BME280;27623;51.966;4.602;2022-10-18T13:23:28;66342.19;;;25.86;42.94
41636;BME280;27623;51.966;4.602;2022-10-18T13:28:46;66336.25;;;25.83;42.03
41636;BME280;27623;51.966;4.602;2022-10-18T13:37:03;66381.16;;;25.90;44.04
41636;BME280;27623;51.966;4.602;2022-10-18T13:39:31;66343.25;;;25.94;42.27
41636;BME280;27623;51.966;4.602;2022-10-18T13:44:33;66321.91;;;25.79;44.97
41636;BME280;27623;51.966;4.602;2022-10-18T14:06:16;66367.84;;;26.19;44.29
41636;BME280;27623;51.966;4.602;2022-10-18T14:11:36;66364.75;;;26.28;44.35
41636;BME280;27623;51.966;4.602;2022-10-18T14:14:23;66431.13;;;26.43;44.76
41636;BME280;27623;51.966;4.602;2022-10-18T14:20:03;66364.94;;;26.30;44.50
41636;BME280;27623;51.966;4.602;2022-10-18T14:22:48;66411.63;;;26.32;44.51
41636;BME280;27623;51.966;4.602;2022-10-18T14:25:41;66399.09;;;26.33;42.87
41636;BME280;27623;51.966;4.602;2022-10-18T14:28:12;66413.22;;;26.41;44.31
41636;BME280;27623;51.966;4.602;2022-10-18T14:33:35;66376.47;;;26.15;44.79
41636;BME280;27623;51.966;4.602;2022-10-18T14:36:05;66372.06;;;26.27;45.80
41636;BME280;27623;51.966;4.602;2022-10-18T14:38:34;66371.81;;;26.15;44.21
41636;BME280;27623;51.966;4.602;2022-10-18T14:41:14;66363.22;;;25.95;45.10
41636;BME280;27623;51.966;4.602;2022-10-18T14:43:40;66284.00;;;25.83;46.35
41636;BME280;27623;51.966;4.602;2022-10-18T14:48:40;66271.66;;;25.45;48.98
41636;BME280;27623;51.966;4.602;2022-10-18T14:51:08;66161.63;;;25.14;48.60
41636;BME280;27623;51.966;4.602;2022-10-18T14:53:37;66145.28;;;24.63;48.97
41636;BME280;27623;51.966;4.602;2022-10-18T14:56:04;66069.56;;;24.37;50.87
41636;BME280;27623;51.966;4.602;2022-10-18T14:58:34;66036.56;;;24.02;50.69
41636;BME280;27623;51.966;4.602;2022-10-18T15:01:00;65994.44;;;23.70;51.89
41636;BME280;27623;51.966;4.602;2022-10-18T15:03:26;65944.25;;;23.26;53.99
41636;BME280;27623;51.966;4.602;2022-10-18T15:06:01;65921.63;;;23.22;53.79
41636;BME280;27623;51.966;4.602;2022-10-18T15:08:36;65903.09;;;22.93;56.15
41636;BME280;27623;51.966;4.602;2022-10-18T15:11:03;65863.75;;;22.88;55.78
41636;BME280;27623;51.966;4.602;2022-10-18T15:13:33;65847.72;;;22.74;56.52
41636;BME280;27623;51.966;4.602;2022-10-18T15:16:02;65793.13;;;22.33;56.02
41636;BME280;27623;51.966;4.602;2022-10-18T15:18:28;65785.75;;;22.31;57.41
41636;BME280;27623;51.966;4.602;2022-10-18T15:21:19;65759.78;;;22.07;57.37
41636;BME280;27623;51.966;4.602;2022-10-18T15:23:49;65738.69;;;21.78;56.20
41636;BME280;27623;51.966;4.602;2022-10-18T15:26:26;65689.13;;;21.83;57.74